Williamsville, Virginia
Current Conditions -  °F | °C
As of 11:15 AM on Friday 24 Oct 2014 (Local Time) from KHSP Reporting Station
Clear Clear  
Wind Chill: 41°   Ceiling: Unl
Heat Index: 46°   Visibility: 10mi
Dew Point: 39°   Wind: 13mph
Humidity: 75%   Direction: 290°WNW
Pressure: 30.05"   Gusts: 20mph
Location:  38.2°N, 79.57°W
Report Text: KHSP 241515Z AUTO 29011G17KT 10SM CLR 08/04 A3005 RMK AO2 T00800038
Loading
Personal Weather Stations






























Interactive Weather Map
Tropical Storm Tracking
New forecast layout! Learn more

10-Day Weather Forecast

Advertisements
Track Severe Weather on mobile